sensor_id;sensor_type;location;lat;lon;timestamp;P1;durP1;ratioP1;P2;durP2;ratioP2
38053;SDS011;23859;50.672;7.164;2023-07-30T00:01:49;9.20;;;5.05;;
38053;SDS011;23859;50.672;7.164;2023-07-30T00:04:15;6.50;;;5.30;;
38053;SDS011;23859;50.672;7.164;2023-07-30T00:06:41;7.63;;;4.70;;
38053;SDS011;23859;50.672;7.164;2023-07-30T00:09:07;7.07;;;4.68;;
38053;SDS011;23859;50.672;7.164;2023-07-30T00:11:33;6.00;;;5.03;;
38053;SDS011;23859;50.672;7.164;2023-07-30T00:14:00;6.63;;;4.95;;
38053;SDS011;23859;50.672;7.164;2023-07-30T00:16:26;7.53;;;4.68;;
38053;SDS011;23859;50.672;7.164;2023-07-30T00:18:52;7.38;;;5.10;;
38053;SDS011;23859;50.672;7.164;2023-07-30T00:21:18;6.97;;;4.15;;
38053;SDS011;23859;50.672;7.164;2023-07-30T00:23:44;8.93;;;4.97;;
38053;SDS011;23859;50.672;7.164;2023-07-30T00:26:10;5.90;;;4.45;;
38053;SDS011;23859;50.672;7.164;2023-07-30T00:28:36;10.13;;;5.75;;
38053;SDS011;23859;50.672;7.164;2023-07-30T00:31:02;7.78;;;4.88;;
38053;SDS011;23859;50.672;7.164;2023-07-30T00:33:28;7.72;;;4.45;;
38053;SDS011;23859;50.672;7.164;2023-07-30T00:35:54;5.75;;;4.30;;
38053;SDS011;23859;50.672;7.164;2023-07-30T00:38:20;7.22;;;5.20;;
38053;SDS011;23859;50.672;7.164;2023-07-30T00:40:46;8.93;;;4.90;;
38053;SDS011;23859;50.672;7.164;2023-07-30T00:43:12;5.78;;;3.95;;
38053;SDS011;23859;50.672;7.164;2023-07-30T00:45:40;6.75;;;4.30;;
38053;SDS011;23859;50.672;7.164;2023-07-30T00:48:08;7.85;;;4.10;;
38053;SDS011;23859;50.672;7.164;2023-07-30T00:50:35;4.88;;;3.45;;
38053;SDS011;23859;50.672;7.164;2023-07-30T00:53:01;5.93;;;4.20;;
38053;SDS011;23859;50.672;7.164;2023-07-30T00:55:27;6.88;;;3.95;;
38053;SDS011;23859;50.672;7.164;2023-07-30T00:57:54;12.30;;;4.90;;
38053;SDS011;23859;50.672;7.164;2023-07-30T01:00:21;5.28;;;4.22;;
38053;SDS011;23859;50.672;7.164;2023-07-30T01:02:49;5.82;;;3.95;;
38053;SDS011;23859;50.672;7.164;2023-07-30T01:05:16;6.10;;;4.28;;
38053;SDS011;23859;50.672;7.164;2023-07-30T01:07:43;9.18;;;3.78;;
38053;SDS011;23859;50.672;7.164;2023-07-30T01:10:09;6.68;;;3.83;;
38053;SDS011;23859;50.672;7.164;2023-07-30T01:12:35;7.18;;;3.83;;
38053;SDS011;23859;50.672;7.164;2023-07-30T01:15:02;13.30;;;4.75;;
38053;SDS011;23859;50.672;7.164;2023-07-30T01:17:29;7.70;;;4.50;;
38053;SDS011;23859;50.672;7.164;2023-07-30T01:19:55;9.35;;;4.70;;
38053;SDS011;23859;50.672;7.164;2023-07-30T01:22:22;10.43;;;5.95;;
38053;SDS011;23859;50.672;7.164;2023-07-30T01:24:49;8.43;;;4.30;;
38053;SDS011;23859;50.672;7.164;2023-07-30T01:27:25;5.45;;;4.70;;
38053;SDS011;23859;50.672;7.164;2023-07-30T01:30:00;6.80;;;4.10;;
38053;SDS011;23859;50.672;7.164;2023-07-30T01:32:33;9.05;;;3.60;;
38053;SDS011;23859;50.672;7.164;2023-07-30T01:35:00;8.65;;;3.97;;
38053;SDS011;23859;50.672;7.164;2023-07-30T01:37:29;5.93;;;3.92;;
38053;SDS011;23859;50.672;7.164;2023-07-30T01:39:55;8.50;;;4.53;;
38053;SDS011;23859;50.672;7.164;2023-07-30T01:42:22;6.25;;;4.28;;
38053;SDS011;23859;50.672;7.164;2023-07-30T01:44:56;7.55;;;4.72;;
38053;SDS011;23859;50.672;7.164;2023-07-30T01:47:22;9.13;;;4.78;;
38053;SDS011;23859;50.672;7.164;2023-07-30T01:49:48;9.50;;;4.30;;
38053;SDS011;23859;50.672;7.164;2023-07-30T01:52:14;7.72;;;3.90;;
38053;SDS011;23859;50.672;7.164;2023-07-30T01:54:40;7.95;;;3.90;;
38053;SDS011;23859;50.672;7.164;2023-07-30T01:57:07;6.10;;;4.03;;
38053;SDS011;23859;50.672;7.164;2023-07-30T01:59:33;6.22;;;3.63;;
38053;SDS011;23859;50.672;7.164;2023-07-30T02:01:59;9.45;;;4.18;;
38053;SDS011;23859;50.672;7.164;2023-07-30T02:04:25;6.80;;;4.57;;
38053;SDS011;23859;50.672;7.164;2023-07-30T02:06:51;6.55;;;3.42;;
38053;SDS011;23859;50.672;7.164;2023-07-30T02:09:17;8.20;;;3.67;;
38053;SDS011;23859;50.672;7.164;2023-07-30T02:11:43;5.93;;;3.50;;
38053;SDS011;23859;50.672;7.164;2023-07-30T02:14:09;8.38;;;3.13;;
38053;SDS011;23859;50.672;7.164;2023-07-30T02:16:35;5.13;;;3.38;;
38053;SDS011;23859;50.672;7.164;2023-07-30T02:19:02;4.50;;;3.08;;
38053;SDS011;23859;50.672;7.164;2023-07-30T02:21:28;8.63;;;3.83;;
38053;SDS011;23859;50.672;7.164;2023-07-30T02:23:57;3.63;;;2.67;;
38053;SDS011;23859;50.672;7.164;2023-07-30T02:26:24;11.82;;;5.07;;
38053;SDS011;23859;50.672;7.164;2023-07-30T02:28:50;6.55;;;3.17;;
38053;SDS011;23859;50.672;7.164;2023-07-30T02:31:16;5.30;;;3.03;;
38053;SDS011;23859;50.672;7.164;2023-07-30T02:33:42;7.00;;;3.70;;
38053;SDS011;23859;50.672;7.164;2023-07-30T02:36:08;5.85;;;3.25;;
38053;SDS011;23859;50.672;7.164;2023-07-30T02:38:34;3.85;;;2.90;;
38053;SDS011;23859;50.672;7.164;2023-07-30T02:41:00;6.72;;;2.78;;
38053;SDS011;23859;50.672;7.164;2023-07-30T02:43:26;8.32;;;3.10;;
38053;SDS011;23859;50.672;7.164;2023-07-30T02:45:52;4.53;;;2.83;;
38053;SDS011;23859;50.672;7.164;2023-07-30T02:48:18;3.10;;;2.75;;
38053;SDS011;23859;50.672;7.164;2023-07-30T02:50:44;5.65;;;3.00;;
38053;SDS011;23859;50.672;7.164;2023-07-30T02:53:10;5.50;;;3.00;;
38053;SDS011;23859;50.672;7.164;2023-07-30T02:55:36;12.07;;;2.70;;
38053;SDS011;23859;50.672;7.164;2023-07-30T02:58:02;12.00;;;3.63;;
38053;SDS011;23859;50.672;7.164;2023-07-30T03:00:28;5.93;;;2.92;;
38053;SDS011;23859;50.672;7.164;2023-07-30T03:02:55;5.57;;;3.08;;
38053;SDS011;23859;50.672;7.164;2023-07-30T03:05:22;11.23;;;3.15;;
38053;SDS011;23859;50.672;7.164;2023-07-30T03:07:48;5.18;;;2.75;;
38053;SDS011;23859;50.672;7.164;2023-07-30T03:10:14;6.55;;;2.95;;
38053;SDS011;23859;50.672;7.164;2023-07-30T03:12:40;13.57;;;3.42;;
38053;SDS011;23859;50.672;7.164;2023-07-30T03:15:06;7.18;;;2.42;;
38053;SDS011;23859;50.672;7.164;2023-07-30T03:17:32;4.43;;;2.90;;
38053;SDS011;23859;50.672;7.164;2023-07-30T03:19:58;7.57;;;2.58;;
38053;SDS011;23859;50.672;7.164;2023-07-30T03:22:24;5.72;;;3.03;;
38053;SDS011;23859;50.672;7.164;2023-07-30T03:24:50;3.72;;;2.65;;
38053;SDS011;23859;50.672;7.164;2023-07-30T03:27:16;5.10;;;2.78;;
38053;SDS011;23859;50.672;7.164;2023-07-30T03:29:42;6.63;;;3.08;;
38053;SDS011;23859;50.672;7.164;2023-07-30T03:32:08;4.15;;;2.70;;
38053;SDS011;23859;50.672;7.164;2023-07-30T03:34:34;5.88;;;3.13;;
38053;SDS011;23859;50.672;7.164;2023-07-30T03:37:00;5.88;;;3.00;;
38053;SDS011;23859;50.672;7.164;2023-07-30T03:39:26;7.43;;;3.03;;
38053;SDS011;23859;50.672;7.164;2023-07-30T03:41:52;5.43;;;2.75;;
38053;SDS011;23859;50.672;7.164;2023-07-30T03:44:19;7.30;;;2.95;;
38053;SDS011;23859;50.672;7.164;2023-07-30T03:46:45;6.95;;;2.55;;
38053;SDS011;23859;50.672;7.164;2023-07-30T03:49:11;5.20;;;2.80;;
38053;SDS011;23859;50.672;7.164;2023-07-30T03:51:37;6.13;;;3.13;;
38053;SDS011;23859;50.672;7.164;2023-07-30T03:54:04;6.60;;;3.13;;
38053;SDS011;23859;50.672;7.164;2023-07-30T03:56:30;5.50;;;3.17;;
38053;SDS011;23859;50.672;7.164;2023-07-30T03:58:56;7.60;;;3.15;;
38053;SDS011;23859;50.672;7.164;2023-07-30T04:01:22;9.13;;;3.13;;
38053;SDS011;23859;50.672;7.164;2023-07-30T04:03:48;3.80;;;2.92;;
38053;SDS011;23859;50.672;7.164;2023-07-30T04:06:14;6.90;;;3.22;;
38053;SDS011;23859;50.672;7.164;2023-07-30T04:08:40;4.35;;;2.63;;
38053;SDS011;23859;50.672;7.164;2023-07-30T04:11:06;8.38;;;3.28;;
38053;SDS011;23859;50.672;7.164;2023-07-30T04:13:32;5.28;;;2.80;;
38053;SDS011;23859;50.672;7.164;2023-07-30T04:15:59;4.05;;;3.13;;
38053;SDS011;23859;50.672;7.164;2023-07-30T04:18:25;14.40;;;2.92;;
38053;SDS011;23859;50.672;7.164;2023-07-30T04:20:53;4.95;;;3.15;;
38053;SDS011;23859;50.672;7.164;2023-07-30T04:23:21;4.55;;;2.90;;
38053;SDS011;23859;50.672;7.164;2023-07-30T04:25:48;5.63;;;3.47;;
38053;SDS011;23859;50.672;7.164;2023-07-30T04:28:15;3.67;;;2.72;;
38053;SDS011;23859;50.672;7.164;2023-07-30T04:30:41;8.50;;;3.22;;
38053;SDS011;23859;50.672;7.164;2023-07-30T04:33:07;6.78;;;3.58;;
38053;SDS011;23859;50.672;7.164;2023-07-30T04:35:33;4.13;;;3.15;;
38053;SDS011;23859;50.672;7.164;2023-07-30T04:37:59;6.00;;;3.33;;
38053;SDS011;23859;50.672;7.164;2023-07-30T04:40:25;9.38;;;3.90;;
38053;SDS011;23859;50.672;7.164;2023-07-30T04:42:51;8.55;;;4.28;;
38053;SDS011;23859;50.672;7.164;2023-07-30T04:45:17;6.63;;;4.03;;
38053;SDS011;23859;50.672;7.164;2023-07-30T04:47:43;11.27;;;4.03;;
38053;SDS011;23859;50.672;7.164;2023-07-30T04:50:09;8.18;;;3.63;;
38053;SDS011;23859;50.672;7.164;2023-07-30T04:52:36;6.97;;;3.22;;
38053;SDS011;23859;50.672;7.164;2023-07-30T04:55:02;6.40;;;3.08;;
38053;SDS011;23859;50.672;7.164;2023-07-30T04:57:28;8.38;;;3.15;;
38053;SDS011;23859;50.672;7.164;2023-07-30T04:59:54;7.65;;;3.30;;
38053;SDS011;23859;50.672;7.164;2023-07-30T05:02:20;5.78;;;2.75;;
38053;SDS011;23859;50.672;7.164;2023-07-30T05:04:46;5.80;;;2.53;;
38053;SDS011;23859;50.672;7.164;2023-07-30T05:07:12;6.35;;;3.00;;
38053;SDS011;23859;50.672;7.164;2023-07-30T05:09:38;5.80;;;1.95;;
38053;SDS011;23859;50.672;7.164;2023-07-30T05:12:04;3.83;;;1.90;;
38053;SDS011;23859;50.672;7.164;2023-07-30T05:14:31;6.20;;;2.40;;
38053;SDS011;23859;50.672;7.164;2023-07-30T05:16:57;6.97;;;2.22;;
38053;SDS011;23859;50.672;7.164;2023-07-30T05:19:23;3.50;;;2.15;;
38053;SDS011;23859;50.672;7.164;2023-07-30T05:21:49;8.45;;;2.55;;
38053;SDS011;23859;50.672;7.164;2023-07-30T05:24:15;6.18;;;2.00;;
38053;SDS011;23859;50.672;7.164;2023-07-30T05:26:41;7.13;;;2.20;;
38053;SDS011;23859;50.672;7.164;2023-07-30T05:29:07;5.82;;;2.33;;
38053;SDS011;23859;50.672;7.164;2023-07-30T05:31:33;5.45;;;2.13;;
38053;SDS011;23859;50.672;7.164;2023-07-30T05:33:59;5.30;;;2.20;;
38053;SDS011;23859;50.672;7.164;2023-07-30T05:36:25;6.03;;;2.22;;
38053;SDS011;23859;50.672;7.164;2023-07-30T05:38:51;8.05;;;2.20;;
38053;SDS011;23859;50.672;7.164;2023-07-30T05:41:17;4.82;;;1.73;;
38053;SDS011;23859;50.672;7.164;2023-07-30T05:43:46;2.95;;;2.08;;
38053;SDS011;23859;50.672;7.164;2023-07-30T05:46:12;4.20;;;2.38;;
38053;SDS011;23859;50.672;7.164;2023-07-30T05:48:38;7.32;;;3.90;;
38053;SDS011;23859;50.672;7.164;2023-07-30T05:51:04;7.38;;;2.83;;
38053;SDS011;23859;50.672;7.164;2023-07-30T05:53:30;7.70;;;2.72;;
38053;SDS011;23859;50.672;7.164;2023-07-30T05:55:56;8.00;;;2.05;;
38053;SDS011;23859;50.672;7.164;2023-07-30T05:58:23;4.80;;;1.85;;
38053;SDS011;23859;50.672;7.164;2023-07-30T06:00:49;7.25;;;2.00;;
38053;SDS011;23859;50.672;7.164;2023-07-30T06:03:15;4.35;;;2.33;;
38053;SDS011;23859;50.672;7.164;2023-07-30T06:05:41;3.67;;;1.90;;
38053;SDS011;23859;50.672;7.164;2023-07-30T06:08:07;7.53;;;2.25;;
38053;SDS011;23859;50.672;7.164;2023-07-30T06:10:37;8.10;;;2.20;;
38053;SDS011;23859;50.672;7.164;2023-07-30T06:13:03;4.72;;;2.20;;
38053;SDS011;23859;50.672;7.164;2023-07-30T06:15:30;4.30;;;1.90;;
38053;SDS011;23859;50.672;7.164;2023-07-30T06:17:57;4.18;;;1.80;;
38053;SDS011;23859;50.672;7.164;2023-07-30T06:20:23;3.28;;;1.83;;
38053;SDS011;23859;50.672;7.164;2023-07-30T06:22:49;8.73;;;2.60;;
38053;SDS011;23859;50.672;7.164;2023-07-30T06:25:15;8.32;;;2.50;;
38053;SDS011;23859;50.672;7.164;2023-07-30T06:27:41;6.85;;;2.78;;
38053;SDS011;23859;50.672;7.164;2023-07-30T06:30:07;6.18;;;2.10;;
38053;SDS011;23859;50.672;7.164;2023-07-30T06:32:35;6.25;;;1.85;;
38053;SDS011;23859;50.672;7.164;2023-07-30T06:35:01;6.25;;;2.00;;
38053;SDS011;23859;50.672;7.164;2023-07-30T06:37:28;5.05;;;2.10;;
38053;SDS011;23859;50.672;7.164;2023-07-30T06:39:54;4.97;;;2.60;;
38053;SDS011;23859;50.672;7.164;2023-07-30T06:42:20;6.80;;;3.17;;
38053;SDS011;23859;50.672;7.164;2023-07-30T06:44:46;7.13;;;2.60;;
38053;SDS011;23859;50.672;7.164;2023-07-30T06:47:12;8.13;;;3.00;;
38053;SDS011;23859;50.672;7.164;2023-07-30T06:49:38;13.25;;;2.83;;
38053;SDS011;23859;50.672;7.164;2023-07-30T06:52:04;6.80;;;2.75;;
38053;SDS011;23859;50.672;7.164;2023-07-30T06:54:30;14.98;;;3.10;;
38053;SDS011;23859;50.672;7.164;2023-07-30T06:56:56;7.45;;;2.83;;
38053;SDS011;23859;50.672;7.164;2023-07-30T06:59:23;5.40;;;3.15;;
38053;SDS011;23859;50.672;7.164;2023-07-30T07:01:49;8.75;;;3.25;;
38053;SDS011;23859;50.672;7.164;2023-07-30T07:04:15;9.70;;;3.03;;
38053;SDS011;23859;50.672;7.164;2023-07-30T07:06:41;7.45;;;3.25;;
38053;SDS011;23859;50.672;7.164;2023-07-30T07:09:07;8.75;;;2.95;;
38053;SDS011;23859;50.672;7.164;2023-07-30T07:11:33;5.88;;;3.05;;
38053;SDS011;23859;50.672;7.164;2023-07-30T07:13:59;8.18;;;3.50;;
38053;SDS011;23859;50.672;7.164;2023-07-30T07:16:25;8.05;;;3.30;;
38053;SDS011;23859;50.672;7.164;2023-07-30T07:18:51;7.55;;;3.35;;
38053;SDS011;23859;50.672;7.164;2023-07-30T07:21:17;7.25;;;3.13;;
38053;SDS011;23859;50.672;7.164;2023-07-30T07:23:45;10.52;;;2.88;;
38053;SDS011;23859;50.672;7.164;2023-07-30T07:26:11;7.07;;;3.33;;
38053;SDS011;23859;50.672;7.164;2023-07-30T07:28:37;10.73;;;3.80;;
38053;SDS011;23859;50.672;7.164;2023-07-30T07:31:03;10.95;;;3.83;;
38053;SDS011;23859;50.672;7.164;2023-07-30T07:33:32;7.85;;;3.72;;
38053;SDS011;23859;50.672;7.164;2023-07-30T07:36:06;10.77;;;3.47;;
38053;SDS011;23859;50.672;7.164;2023-07-30T07:38:33;5.63;;;3.50;;
38053;SDS011;23859;50.672;7.164;2023-07-30T07:40:59;12.40;;;3.55;;
38053;SDS011;23859;50.672;7.164;2023-07-30T07:43:26;8.18;;;3.35;;
38053;SDS011;23859;50.672;7.164;2023-07-30T07:45:52;11.18;;;3.70;;
38053;SDS011;23859;50.672;7.164;2023-07-30T07:48:18;13.55;;;4.13;;
38053;SDS011;23859;50.672;7.164;2023-07-30T07:50:45;9.60;;;3.75;;
38053;SDS011;23859;50.672;7.164;2023-07-30T07:53:11;6.30;;;3.88;;
38053;SDS011;23859;50.672;7.164;2023-07-30T07:55:37;7.20;;;3.72;;
38053;SDS011;23859;50.672;7.164;2023-07-30T07:58:03;7.47;;;3.50;;
38053;SDS011;23859;50.672;7.164;2023-07-30T08:00:29;7.68;;;3.35;;
38053;SDS011;23859;50.672;7.164;2023-07-30T08:02:55;8.50;;;3.63;;
38053;SDS011;23859;50.672;7.164;2023-07-30T08:05:21;11.30;;;4.82;;
38053;SDS011;23859;50.672;7.164;2023-07-30T08:07:49;5.80;;;3.70;;
38053;SDS011;23859;50.672;7.164;2023-07-30T08:10:15;9.27;;;3.75;;
38053;SDS011;23859;50.672;7.164;2023-07-30T08:12:42;9.65;;;3.20;;
38053;SDS011;23859;50.672;7.164;2023-07-30T08:15:08;5.68;;;3.55;;
38053;SDS011;23859;50.672;7.164;2023-07-30T08:17:34;7.55;;;3.70;;
38053;SDS011;23859;50.672;7.164;2023-07-30T08:20:00;7.65;;;3.10;;
38053;SDS011;23859;50.672;7.164;2023-07-30T08:22:26;6.65;;;3.40;;
38053;SDS011;23859;50.672;7.164;2023-07-30T08:24:52;7.60;;;3.00;;
38053;SDS011;23859;50.672;7.164;2023-07-30T08:27:18;7.93;;;3.33;;
38053;SDS011;23859;50.672;7.164;2023-07-30T08:29:44;8.68;;;2.65;;
38053;SDS011;23859;50.672;7.164;2023-07-30T08:32:10;8.40;;;2.63;;
38053;SDS011;23859;50.672;7.164;2023-07-30T08:34:36;9.13;;;2.70;;
38053;SDS011;23859;50.672;7.164;2023-07-30T08:37:03;5.20;;;2.47;;
38053;SDS011;23859;50.672;7.164;2023-07-30T08:39:29;7.05;;;1.95;;
38053;SDS011;23859;50.672;7.164;2023-07-30T08:41:55;5.53;;;2.25;;
38053;SDS011;23859;50.672;7.164;2023-07-30T08:44:21;5.80;;;2.30;;
38053;SDS011;23859;50.672;7.164;2023-07-30T08:46:47;6.85;;;2.97;;
38053;SDS011;23859;50.672;7.164;2023-07-30T08:49:13;3.97;;;2.00;;
38053;SDS011;23859;50.672;7.164;2023-07-30T08:51:39;5.78;;;2.47;;
38053;SDS011;23859;50.672;7.164;2023-07-30T08:54:08;4.88;;;2.10;;
38053;SDS011;23859;50.672;7.164;2023-07-30T08:56:37;5.93;;;2.30;;
38053;SDS011;23859;50.672;7.164;2023-07-30T08:59:03;4.30;;;2.00;;
38053;SDS011;23859;50.672;7.164;2023-07-30T09:01:30;7.55;;;1.98;;
38053;SDS011;23859;50.672;7.164;2023-07-30T09:04:03;5.00;;;1.70;;
38053;SDS011;23859;50.672;7.164;2023-07-30T09:06:30;5.57;;;2.17;;
38053;SDS011;23859;50.672;7.164;2023-07-30T09:08:57;5.28;;;2.15;;
38053;SDS011;23859;50.672;7.164;2023-07-30T09:11:25;4.78;;;2.28;;
38053;SDS011;23859;50.672;7.164;2023-07-30T09:13:53;8.30;;;1.85;;
38053;SDS011;23859;50.672;7.164;2023-07-30T09:16:23;5.72;;;2.35;;
38053;SDS011;23859;50.672;7.164;2023-07-30T09:18:51;3.33;;;1.42;;
38053;SDS011;23859;50.672;7.164;2023-07-30T09:21:33;4.97;;;1.80;;
38053;SDS011;23859;50.672;7.164;2023-07-30T09:24:02;4.28;;;1.75;;
38053;SDS011;23859;50.672;7.164;2023-07-30T09:26:38;12.18;;;2.10;;
38053;SDS011;23859;50.672;7.164;2023-07-30T09:29:08;6.30;;;2.80;;
38053;SDS011;23859;50.672;7.164;2023-07-30T09:31:45;3.67;;;1.95;;
38053;SDS011;23859;50.672;7.164;2023-07-30T09:34:16;8.82;;;2.10;;
38053;SDS011;23859;50.672;7.164;2023-07-30T09:36:46;3.05;;;1.83;;
38053;SDS011;23859;50.672;7.164;2023-07-30T09:39:20;8.55;;;2.50;;
38053;SDS011;23859;50.672;7.164;2023-07-30T09:41:48;5.20;;;1.48;;
38053;SDS011;23859;50.672;7.164;2023-07-30T09:44:18;7.43;;;1.65;;
38053;SDS011;23859;50.672;7.164;2023-07-30T09:46:46;3.35;;;1.52;;
38053;SDS011;23859;50.672;7.164;2023-07-30T09:49:14;10.85;;;2.55;;
38053;SDS011;23859;50.672;7.164;2023-07-30T09:51:41;9.70;;;2.00;;
38053;SDS011;23859;50.672;7.164;2023-07-30T09:54:08;6.38;;;1.52;;
38053;SDS011;23859;50.672;7.164;2023-07-30T09:56:38;8.10;;;1.90;;
38053;SDS011;23859;50.672;7.164;2023-07-30T09:59:06;7.70;;;1.65;;
38053;SDS011;23859;50.672;7.164;2023-07-30T10:01:36;7.57;;;2.22;;
38053;SDS011;23859;50.672;7.164;2023-07-30T10:04:09;6.30;;;1.55;;
38053;SDS011;23859;50.672;7.164;2023-07-30T10:06:39;9.57;;;2.25;;
38053;SDS011;23859;50.672;7.164;2023-07-30T10:09:11;6.00;;;1.92;;
38053;SDS011;23859;50.672;7.164;2023-07-30T10:11:39;4.97;;;1.70;;
38053;SDS011;23859;50.672;7.164;2023-07-30T10:14:06;5.43;;;1.40;;
38053;SDS011;23859;50.672;7.164;2023-07-30T10:16:33;6.75;;;2.30;;
38053;SDS011;23859;50.672;7.164;2023-07-30T10:18:59;9.23;;;1.52;;
38053;SDS011;23859;50.672;7.164;2023-07-30T10:21:27;6.15;;;2.15;;
38053;SDS011;23859;50.672;7.164;2023-07-30T10:24:03;5.63;;;1.50;;
38053;SDS011;23859;50.672;7.164;2023-07-30T10:26:31;5.40;;;1.70;;
38053;SDS011;23859;50.672;7.164;2023-07-30T10:29:10;5.32;;;1.10;;
38053;SDS011;23859;50.672;7.164;2023-07-30T10:31:52;6.90;;;1.40;;
38053;SDS011;23859;50.672;7.164;2023-07-30T10:34:25;5.70;;;1.55;;
38053;SDS011;23859;50.672;7.164;2023-07-30T10:37:07;5.70;;;1.80;;
38053;SDS011;23859;50.672;7.164;2023-07-30T10:39:34;4.15;;;1.30;;
38053;SDS011;23859;50.672;7.164;2023-07-30T10:42:00;3.50;;;1.58;;
38053;SDS011;23859;50.672;7.164;2023-07-30T10:46:57;3.33;;;1.42;;
38053;SDS011;23859;50.672;7.164;2023-07-30T10:49:24;6.90;;;1.20;;
38053;SDS011;23859;50.672;7.164;2023-07-30T10:51:51;7.30;;;1.42;;
38053;SDS011;23859;50.672;7.164;2023-07-30T10:54:18;6.07;;;1.77;;
38053;SDS011;23859;50.672;7.164;2023-07-30T10:56:45;3.80;;;1.58;;
38053;SDS011;23859;50.672;7.164;2023-07-30T10:59:11;6.55;;;1.52;;
38053;SDS011;23859;50.672;7.164;2023-07-30T11:01:39;8.02;;;1.50;;
38053;SDS011;23859;50.672;7.164;2023-07-30T11:04:19;7.03;;;1.83;;
38053;SDS011;23859;50.672;7.164;2023-07-30T11:06:46;4.00;;;1.33;;
38053;SDS011;23859;50.672;7.164;2023-07-30T11:09:24;5.25;;;1.50;;
38053;SDS011;23859;50.672;7.164;2023-07-30T11:11:52;8.30;;;2.22;;
38053;SDS011;23859;50.672;7.164;2023-07-30T11:14:20;6.07;;;1.65;;
38053;SDS011;23859;50.672;7.164;2023-07-30T11:16:50;7.88;;;1.30;;
38053;SDS011;23859;50.672;7.164;2023-07-30T11:19:18;4.68;;;1.17;;
38053;SDS011;23859;50.672;7.164;2023-07-30T11:21:45;6.90;;;1.30;;
38053;SDS011;23859;50.672;7.164;2023-07-30T11:24:12;5.13;;;1.20;;
38053;SDS011;23859;50.672;7.164;2023-07-30T11:26:39;4.65;;;1.20;;
38053;SDS011;23859;50.672;7.164;2023-07-30T11:29:17;4.60;;;1.00;;
38053;SDS011;23859;50.672;7.164;2023-07-30T11:31:44;6.57;;;1.30;;
38053;SDS011;23859;50.672;7.164;2023-07-30T11:34:12;4.07;;;1.23;;
38053;SDS011;23859;50.672;7.164;2023-07-30T11:36:42;1.77;;;0.80;;
38053;SDS011;23859;50.672;7.164;2023-07-30T11:39:08;5.40;;;1.13;;
38053;SDS011;23859;50.672;7.164;2023-07-30T11:41:35;4.93;;;1.42;;
38053;SDS011;23859;50.672;7.164;2023-07-30T11:44:02;3.00;;;1.00;;
38053;SDS011;23859;50.672;7.164;2023-07-30T11:46:29;5.40;;;1.10;;
38053;SDS011;23859;50.672;7.164;2023-07-30T11:49:10;3.42;;;1.30;;
38053;SDS011;23859;50.672;7.164;2023-07-30T11:51:38;4.85;;;1.40;;
38053;SDS011;23859;50.672;7.164;2023-07-30T11:54:04;2.63;;;1.10;;
38053;SDS011;23859;50.672;7.164;2023-07-30T11:56:31;3.70;;;1.20;;
38053;SDS011;23859;50.672;7.164;2023-07-30T11:59:01;2.63;;;1.10;;
38053;SDS011;23859;50.672;7.164;2023-07-30T12:01:31;3.17;;;1.13;;
38053;SDS011;23859;50.672;7.164;2023-07-30T12:04:03;3.90;;;1.35;;
38053;SDS011;23859;50.672;7.164;2023-07-30T12:06:46;6.68;;;1.80;;
38053;SDS011;23859;50.672;7.164;2023-07-30T12:09:17;4.13;;;1.08;;
38053;SDS011;23859;50.672;7.164;2023-07-30T12:11:48;3.92;;;1.42;;
38053;SDS011;23859;50.672;7.164;2023-07-30T12:14:15;1.42;;;1.02;;
38053;SDS011;23859;50.672;7.164;2023-07-30T12:16:41;4.63;;;1.15;;
38053;SDS011;23859;50.672;7.164;2023-07-30T12:19:07;5.60;;;1.05;;
38053;SDS011;23859;50.672;7.164;2023-07-30T12:21:33;5.75;;;1.45;;
38053;SDS011;23859;50.672;7.164;2023-07-30T12:23:59;6.90;;;1.17;;
38053;SDS011;23859;50.672;7.164;2023-07-30T12:26:25;2.33;;;0.90;;
38053;SDS011;23859;50.672;7.164;2023-07-30T12:28:51;5.25;;;1.80;;
38053;SDS011;23859;50.672;7.164;2023-07-30T12:31:18;5.95;;;1.10;;
38053;SDS011;23859;50.672;7.164;2023-07-30T12:33:44;5.90;;;1.33;;
38053;SDS011;23859;50.672;7.164;2023-07-30T12:36:10;2.92;;;1.10;;
38053;SDS011;23859;50.672;7.164;2023-07-30T12:38:36;3.38;;;1.02;;
38053;SDS011;23859;50.672;7.164;2023-07-30T12:41:02;3.33;;;1.20;;
38053;SDS011;23859;50.672;7.164;2023-07-30T12:43:28;2.50;;;1.10;;
38053;SDS011;23859;50.672;7.164;2023-07-30T12:45:55;2.83;;;1.30;;
38053;SDS011;23859;50.672;7.164;2023-07-30T12:48:21;6.20;;;1.33;;
38053;SDS011;23859;50.672;7.164;2023-07-30T12:50:47;2.78;;;1.10;;
38053;SDS011;23859;50.672;7.164;2023-07-30T12:53:13;3.00;;;0.93;;
38053;SDS011;23859;50.672;7.164;2023-07-30T12:55:39;3.90;;;1.05;;
38053;SDS011;23859;50.672;7.164;2023-07-30T12:58:05;2.70;;;1.05;;
38053;SDS011;23859;50.672;7.164;2023-07-30T13:00:31;5.00;;;1.50;;
38053;SDS011;23859;50.672;7.164;2023-07-30T13:02:58;2.33;;;0.90;;
38053;SDS011;23859;50.672;7.164;2023-07-30T13:05:25;2.67;;;0.80;;
38053;SDS011;23859;50.672;7.164;2023-07-30T13:07:51;3.47;;;1.30;;
38053;SDS011;23859;50.672;7.164;2023-07-30T13:10:17;6.03;;;1.35;;
38053;SDS011;23859;50.672;7.164;2023-07-30T13:12:43;3.55;;;1.02;;
38053;SDS011;23859;50.672;7.164;2023-07-30T13:15:09;4.28;;;1.02;;
38053;SDS011;23859;50.672;7.164;2023-07-30T13:17:35;5.30;;;1.10;;
38053;SDS011;23859;50.672;7.164;2023-07-30T13:20:02;8.75;;;1.48;;
38053;SDS011;23859;50.672;7.164;2023-07-30T13:22:29;4.18;;;1.30;;
38053;SDS011;23859;50.672;7.164;2023-07-30T13:24:55;1.13;;;0.75;;
38053;SDS011;23859;50.672;7.164;2023-07-30T13:27:21;2.90;;;1.17;;
38053;SDS011;23859;50.672;7.164;2023-07-30T13:29:47;3.38;;;1.02;;
38053;SDS011;23859;50.672;7.164;2023-07-30T13:32:14;3.40;;;1.02;;
38053;SDS011;23859;50.672;7.164;2023-07-30T13:34:40;4.78;;;1.10;;
38053;SDS011;23859;50.672;7.164;2023-07-30T13:37:06;3.05;;;1.00;;
38053;SDS011;23859;50.672;7.164;2023-07-30T13:39:32;4.97;;;1.20;;
38053;SDS011;23859;50.672;7.164;2023-07-30T13:41:58;3.17;;;0.90;;
38053;SDS011;23859;50.672;7.164;2023-07-30T13:44:24;2.95;;;0.93;;
38053;SDS011;23859;50.672;7.164;2023-07-30T13:46:50;4.43;;;1.30;;
38053;SDS011;23859;50.672;7.164;2023-07-30T13:49:16;2.75;;;1.15;;
38053;SDS011;23859;50.672;7.164;2023-07-30T13:51:43;5.93;;;1.70;;
38053;SDS011;23859;50.672;7.164;2023-07-30T13:54:09;5.80;;;1.10;;
38053;SDS011;23859;50.672;7.164;2023-07-30T13:56:35;4.40;;;1.10;;
38053;SDS011;23859;50.672;7.164;2023-07-30T13:59:03;4.18;;;1.25;;
38053;SDS011;23859;50.672;7.164;2023-07-30T14:01:30;3.28;;;1.27;;
38053;SDS011;23859;50.672;7.164;2023-07-30T14:03:56;4.53;;;1.50;;
38053;SDS011;23859;50.672;7.164;2023-07-30T14:06:22;7.40;;;2.85;;
38053;SDS011;23859;50.672;7.164;2023-07-30T14:08:48;2.75;;;1.20;;
38053;SDS011;23859;50.672;7.164;2023-07-30T14:11:14;8.85;;;1.45;;
38053;SDS011;23859;50.672;7.164;2023-07-30T14:13:40;6.50;;;1.10;;
38053;SDS011;23859;50.672;7.164;2023-07-30T14:16:06;2.17;;;0.90;;
38053;SDS011;23859;50.672;7.164;2023-07-30T14:18:33;7.07;;;1.27;;
38053;SDS011;23859;50.672;7.164;2023-07-30T14:20:59;3.15;;;1.00;;
38053;SDS011;23859;50.672;7.164;2023-07-30T14:23:27;5.68;;;1.10;;
38053;SDS011;23859;50.672;7.164;2023-07-30T14:25:53;5.15;;;1.17;;
38053;SDS011;23859;50.672;7.164;2023-07-30T14:28:19;3.88;;;0.93;;
38053;SDS011;23859;50.672;7.164;2023-07-30T14:30:45;2.55;;;0.98;;
38053;SDS011;23859;50.672;7.164;2023-07-30T14:33:11;4.10;;;0.95;;
38053;SDS011;23859;50.672;7.164;2023-07-30T14:35:38;6.60;;;1.13;;
38053;SDS011;23859;50.672;7.164;2023-07-30T14:38:05;3.95;;;0.95;;
38053;SDS011;23859;50.672;7.164;2023-07-30T14:40:32;5.93;;;1.52;;
38053;SDS011;23859;50.672;7.164;2023-07-30T14:42:58;4.55;;;1.17;;
38053;SDS011;23859;50.672;7.164;2023-07-30T14:45:24;5.22;;;1.55;;
38053;SDS011;23859;50.672;7.164;2023-07-30T14:47:50;2.83;;;0.93;;
38053;SDS011;23859;50.672;7.164;2023-07-30T14:50:16;2.05;;;1.08;;